En poursuivant votre navigation sur ce site, vous acceptez l'utilisation de cookies pour vous proposer des contenus et services adaptés. Mentions légales.
  

11/11/2019  Mise à jour des tableaux d'analyses décadaires : rubrique climatologie
03/11/2019 Mise en ligne de la synthèse climatologique d'Octobre : 
CLIQUEZ ICI
01/11/2019  Mise à jour des tableaux d'analyses décadaires, mensuelles et annuelles : rubrique climatologie   

NOAA COMPLET DU MOIS

Si l'entête du tableau ne s'affiche pas correctement, => actualisez la page (F5 avec Internet Explorer, Chrome...).
Utilisez l'ascenseur sur la droite des lignes du tableau pour faire défiler verticalement les jours du mois.

TABLEAU DES DONNEES COMPLETES NOAA d'AOUT 2019

DATE TEMPERATURE
sous abri
TEMPARATURE 
au sol
VENT  et  Indice de Refroidissement Eolien  PRECIPITATIONS (en mm/m2)
et Intensité
PRESSION ATMOSPHERIQUE (en hPa) HUMIDITE de l'AIR RADIATIONS SOLAIRES (en W/m2)
Mini Moy. Maxi Mini Moy. Maxi Moyen Rafale I.R.E.
Minii
Précip. jour Cumul mois Intensité Maxi Mini Moy. Maxi Mini Moy. Maxi Pic maxi du jour Total jour
01/08/19 10.9° 19.2° 27.2° 9.4° 19.3° 31.1° 2.4km/h dir O 16.1km/h dir NNE 10.9° 0 0 1012.7 1015.6 1018 46% 71.9% 94% 1123 64 850
02/08/19 16.9° 22.5° 29.4° 15.6° 22.7° 32.2° 3.2km/h dir NNE 22.5km/h dir NNE 16.9° 0 0 1013.1 1014 1015 38% 66.5% 90% 838 78 439
03/08/19 13.9° 21.8° 28.8° 12.2° 22° 32.2° 4.5km/h dir NNE 24.1km/h dir ONO 13.9° 0 0 1013.2 1014.4 1015.9 38% 66.4% 94% 849 80 465
04/08/19 13.2° 22.6° 31.8° 11.7° 22.5° 34.4° 1.8km/h dir NE 16.1km/h dir ENE 13.2° 0 0 1011.9 1013.4 1015 28% 63.6% 94% 863 39 933
05/08/19 16.9° 25.1° 33.2° 15° 25° 35.6° 2.6km/h dir SSE 22.5km/h dir E 17° 0 0 1010.1 1012.3 1014 40% 61.7% 84% 853 37 551
06/08/19 18.5° 22.8° 28.1° 16.7° 22.6° 32.2° 3.7km/h dir SSE 33.8km/h dir SSE 18.5° 4.6 4.6 51.8mm/h 1008.2 1010.8 1012.2 60% 80.1% 93% 896 17 889
07/08/19 17.9° 20.2° 25.3° 16.7° 20.3° 27.8° 5.5km/h dir SSE 38.6km/h dir SSE 17.7° 25 29.6 110.8mm/h 1008 1010.2 1012.1 70% 90.3% 95% 893 19 190
08/08/19 15.2° 22.4° 30.7° 13.9° 22.6° 32.8° 1.4km/h dir N 12.9km/h dir ENE 15.2° 0 29.6 1009.8 1011.5 1012.9 45% 76.3% 97% 831 38 181
09/08/19 19.2° 24.9° 33.6° 17.2° 24.6° 36.1° 8.7km/h dir SSE 53.1km/h dir SSE 19.2° 26.4 56 91.4mm/h 1006.4 1009.2 1012.4 46% 73.3% 95% 896 29 912
10/08/19 16.4° 22.1° 28.4° 16.1° 22.8° 30.6° 3.2km/h dir NNE 30.6km/h dir OSO 16.4° 24.8 80.8 106.6mm/h 1012.7 1016.7 1018.2 52% 78.2% 96% 960 37 621
11/08/19 14.2° 18° 24.9° 13.9° 17.5° 28.3° 5.6km/h dir ONO 43.5km/h dir O 13.7° 25.2 106 32.2mm/h 1012.2 1016.1 1018.5 61% 87.2% 96% 1046 27 147
12/08/19 13.8° 17.6° 24.2° 12.8° 18° 26.7° 2.7km/h dir ENE 25.7km/h dir OSO 13.6° 4.8 110.8 21mm/h 1015.7 1017.6 1019.6 57% 84.1% 97% 1067 53 298
13/08/19 12.7° 16.9° 22.2° 11.7° 17.1° 25.6° 4.7km/h dir ONO 25.7km/h dir NE 12.7° 0.2 111 1018.4 1019.6 1021.1 48% 78.1% 96% 951 65 682
14/08/19 9.9° 17.3° 24.7° 8.9° 17.4° 27.2° 3.5km/h dir NNE 22.5km/h dir ONO 9.9° 0.2 111.2 1015.8 1018.1 1019.9 46% 74.2% 96% 844 75 286
15/08/19 14.2° 18.8° 24.5° 12.8° 18.6° 28.9° 4.2km/h dir SE 22.5km/h dir O 14.2° 0 111.2 1015.5 1017.3 1020.2 51% 74.9% 90% 1260 43 784
16/08/19 11° 18.6° 26.4° 10° 18.4° 28.9° 2.3km/h dir O 17.7km/h dir O 11° 0 111.2 1014.4 1017.6 1020.3 46% 75.6% 95% 1002 65 769
17/08/19 14.3° 22.6° 31.1° 12.8° 22.4° 33.9° 4.8km/h dir SSE 30.6km/h dir SSE 14.3° 0 111.2 1009.8 1012.9 1014.8 35% 65.5% 93% 949 63 552
18/08/19 19.1° 24.4° 31.2° 18.9° 24.1° 33.3° 9.5km/h dir SSE 53.1km/h dir S 19.1° 16 127.2 43.4mm/h 1008.4 1009.9 1014.3 49% 67.1% 95% 905 59 578
19/08/19 15.9° 17.8° 19.6° 16.1° 17.9° 20.6° 2.7km/h dir O 19.3km/h dir O 15.9° 31.2 158.4 71.6mm/h 1013.2 1017.5 1020.4 80% 91.5% 96% 378 19 149
20/08/19 14.3° 16.1° 17.1° 12.8° 15.9° 17.8° 1.8km/h dir O 12.9km/h dir O 14.3° 8.2 166.6 3.6mm/h 1019.2 1022.1 1025.4 93% 95.3% 96% 192 12 236
21/08/19 11.3° 16.8° 23.6° 10° 17.1° 26.1° 6.8km/h dir ONO 27.4km/h dir O 10.4° 0.2 166.8 1020.8 1023.1 1025.3 64% 84.8% 97% 1016 61 950
22/08/19 11.4° 17.3° 24.8° 10° 17.5° 27.8° 2.4km/h dir ONO 16.1km/h dir O 11.4° 0 166.8 1021 1022.1 1023.5 59% 84% 97% 802 63 281
23/08/19 11.8° 18.4° 26.4° 11.1° 18.6° 29.4° 1.6km/h dir O 12.9km/h dir ONO 11.8° 0.2 167 1018.6 1020.8 1022.3 56% 83.8% 97% 805 63 233
24/08/19 13.9° 21.5° 29.9° 12.8° 21.4° 33.3° 2.1km/h dir SE 24.1km/h dir ESE 13.9° 0.2 167.2 1015.8 1017.8 1019.2 44% 77.8% 96% 795 69 941
25/08/19 13.7° 21.8° 31.3° 12.8° 21.7° 34.4° 1.4km/h dir N 11.3km/h dir ENE 13.7° 0 167.2 1015.8 1016.8 1018.1 37% 74.1% 96% 788 69 212
26/08/19 13.1° 21.6° 30.9° 11.7° 21.4° 33.9° 1.9km/h dir SSO 12.9km/h dir S 13.1° 0.2 167.4 1014.2 1016 1017.6 40% 75% 96% 788 68 944
27/08/19 16.1° 22.7° 29.4° 14.4° 22.2° 32.8° 3.9km/h dir SSE 29km/h dir SSE 16.1° 2.8 170.2 36.6mm/h 1014.2 1015.1 1016.1 54% 74.6% 92% 791 48 309
28/08/19 18.2° 23.9° 30.9° 17.2° 24.2° 33.9° 2.4km/h dir SSO 29km/h dir E 18.2° 0.2 170.4 1013.7 1015.2 1016.3 48% 76.3% 96% 773 64 830
29/08/19 18.1° 22.9° 28.3° 16.7° 22.8° 31.1° 3.7km/h dir NNE 20.9km/h dir O 18.1° 0 170.4 1016.1 1018.1 1019.4 60% 78.2% 92% 791 63 936
30/08/19 15.9° 22.3° 29.4° 15° 22.2° 32.2° 2.7km/h dir N 19.3km/h dir NNE 15.9° 0 170.4 1016.6 1018.9 1020.9 57% 81.4% 96% 745 64 480
31/08/19 16.3° 24.1° 32.8° 15° 23.8° 35° 4km/h dir SSE 30.6km/h dir OSO 16.3° 16.4 186.8 105.6mm/h 1009.9 1013.7 1016.6 42% 74.2% 97% 738 64 206

RETOUR ACCUEIL


Date de création : 01/09/2019 : 14:54
Catégorie : ANNEE 2019 - MOIS PASSES - AOUT 2019
Page lue 90 fois


Réactions à cet article


Personne n'a encore laissé de commentaire.
Soyez donc le premier !